sensor_id;sensor_type;location;lat;lon;timestamp;temperature;humidity
21662;DHT22;10992;48.170;8.596;2023-01-25T00:00:07;0.10;99.90
21662;DHT22;10992;48.170;8.596;2023-01-25T00:02:34;0.20;99.90
21662;DHT22;10992;48.170;8.596;2023-01-25T00:05:02;0.20;99.90
21662;DHT22;10992;48.170;8.596;2023-01-25T00:07:29;0.20;99.90
21662;DHT22;10992;48.170;8.596;2023-01-25T00:09:56;0.20;99.90
21662;DHT22;10992;48.170;8.596;2023-01-25T00:12:23;0.10;99.90
21662;DHT22;10992;48.170;8.596;2023-01-25T00:14:49;0.10;99.90
21662;DHT22;10992;48.170;8.596;2023-01-25T00:17:17;0.20;99.90
21662;DHT22;10992;48.170;8.596;2023-01-25T00:19:43;0.60;99.90
21662;DHT22;10992;48.170;8.596;2023-01-25T00:22:10;0.20;99.90
21662;DHT22;10992;48.170;8.596;2023-01-25T00:24:37;0.20;99.90
21662;DHT22;10992;48.170;8.596;2023-01-25T00:27:04;0.20;99.90
21662;DHT22;10992;48.170;8.596;2023-01-25T00:29:31;0.20;99.90
21662;DHT22;10992;48.170;8.596;2023-01-25T00:34:48;0.20;99.90
21662;DHT22;10992;48.170;8.596;2023-01-25T00:37:23;0.10;99.90
21662;DHT22;10992;48.170;8.596;2023-01-25T00:39:51;0.20;99.90
21662;DHT22;10992;48.170;8.596;2023-01-25T00:42:19;0.20;99.90
21662;DHT22;10992;48.170;8.596;2023-01-25T00:44:47;0.10;99.90
21662;DHT22;10992;48.170;8.596;2023-01-25T00:47:15;0.20;99.90
21662;DHT22;10992;48.170;8.596;2023-01-25T00:49:43;0.20;99.90
21662;DHT22;10992;48.170;8.596;2023-01-25T00:52:11;0.10;99.90
21662;DHT22;10992;48.170;8.596;2023-01-25T00:54:39;0.10;99.90
21662;DHT22;10992;48.170;8.596;2023-01-25T00:57:06;0.20;99.90
21662;DHT22;10992;48.170;8.596;2023-01-25T00:59:34;0.20;99.90
21662;DHT22;10992;48.170;8.596;2023-01-25T01:02:01;0.20;99.90
21662;DHT22;10992;48.170;8.596;2023-01-25T01:04:29;0.20;99.90
21662;DHT22;10992;48.170;8.596;2023-01-25T01:06:57;0.20;99.90
21662;DHT22;10992;48.170;8.596;2023-01-25T01:09:24;0.20;99.90
21662;DHT22;10992;48.170;8.596;2023-01-25T01:11:52;0.20;99.90
21662;DHT22;10992;48.170;8.596;2023-01-25T01:14:20;0.20;99.90
21662;DHT22;10992;48.170;8.596;2023-01-25T01:16:49;0.20;99.90
21662;DHT22;10992;48.170;8.596;2023-01-25T01:19:17;0.20;99.90
21662;DHT22;10992;48.170;8.596;2023-01-25T01:21:44;0.20;99.90
21662;DHT22;10992;48.170;8.596;2023-01-25T01:24:11;0.20;99.90
21662;DHT22;10992;48.170;8.596;2023-01-25T01:26:39;0.10;99.90
21662;DHT22;10992;48.170;8.596;2023-01-25T01:29:06;0.20;99.90
21662;DHT22;10992;48.170;8.596;2023-01-25T01:31:33;0.20;99.90
21662;DHT22;10992;48.170;8.596;2023-01-25T01:34:15;0.20;99.90
21662;DHT22;10992;48.170;8.596;2023-01-25T01:36:42;0.20;99.90
21662;DHT22;10992;48.170;8.596;2023-01-25T01:39:10;0.20;99.90
21662;DHT22;10992;48.170;8.596;2023-01-25T01:41:37;0.20;99.90
21662;DHT22;10992;48.170;8.596;2023-01-25T01:44:05;0.20;99.90
21662;DHT22;10992;48.170;8.596;2023-01-25T01:46:35;0.20;99.90
21662;DHT22;10992;48.170;8.596;2023-01-25T01:49:19;0.10;99.90
21662;DHT22;10992;48.170;8.596;2023-01-25T01:51:51;0.10;99.90
21662;DHT22;10992;48.170;8.596;2023-01-25T01:54:35;0.10;99.90
21662;DHT22;10992;48.170;8.596;2023-01-25T01:57:17;0.20;99.90
21662;DHT22;10992;48.170;8.596;2023-01-25T01:59:51;0.20;99.90
21662;DHT22;10992;48.170;8.596;2023-01-25T02:02:19;0.20;99.90
21662;DHT22;10992;48.170;8.596;2023-01-25T02:04:48;0.10;99.90
21662;DHT22;10992;48.170;8.596;2023-01-25T02:07:21;0.20;99.90
21662;DHT22;10992;48.170;8.596;2023-01-25T02:09:50;0.20;99.90
21662;DHT22;10992;48.170;8.596;2023-01-25T02:12:20;0.10;99.90
21662;DHT22;10992;48.170;8.596;2023-01-25T02:14:49;0.20;99.90
21662;DHT22;10992;48.170;8.596;2023-01-25T02:17:25;0.10;99.90
21662;DHT22;10992;48.170;8.596;2023-01-25T02:20:10;0.10;99.90
21662;DHT22;10992;48.170;8.596;2023-01-25T02:23:08;0.10;99.90
21662;DHT22;10992;48.170;8.596;2023-01-25T02:25:33;0.10;99.90
21662;DHT22;10992;48.170;8.596;2023-01-25T02:28:13;0.10;99.90
21662;DHT22;10992;48.170;8.596;2023-01-25T02:30:43;0.10;99.90
21662;DHT22;10992;48.170;8.596;2023-01-25T02:33:10;0.10;99.90
21662;DHT22;10992;48.170;8.596;2023-01-25T02:35:46;0.10;99.90
21662;DHT22;10992;48.170;8.596;2023-01-25T02:38:17;0.10;99.90
21662;DHT22;10992;48.170;8.596;2023-01-25T02:40:52;0.10;99.90
21662;DHT22;10992;48.170;8.596;2023-01-25T02:43:22;0.10;99.90
21662;DHT22;10992;48.170;8.596;2023-01-25T02:45:58;0.10;99.90
21662;DHT22;10992;48.170;8.596;2023-01-25T02:48:26;0.10;99.90
21662;DHT22;10992;48.170;8.596;2023-01-25T02:50:53;0.10;99.90
21662;DHT22;10992;48.170;8.596;2023-01-25T02:53:19;0.20;99.90
21662;DHT22;10992;48.170;8.596;2023-01-25T02:55:46;0.20;99.90
21662;DHT22;10992;48.170;8.596;2023-01-25T02:58:13;0.10;99.90
21662;DHT22;10992;48.170;8.596;2023-01-25T03:00:40;0.20;99.90
21662;DHT22;10992;48.170;8.596;2023-01-25T03:03:07;0.20;99.90
21662;DHT22;10992;48.170;8.596;2023-01-25T03:05:34;0.20;99.90
21662;DHT22;10992;48.170;8.596;2023-01-25T03:08:01;0.20;99.90
21662;DHT22;10992;48.170;8.596;2023-01-25T03:10:28;0.20;99.90
21662;DHT22;10992;48.170;8.596;2023-01-25T03:12:55;0.10;99.90
21662;DHT22;10992;48.170;8.596;2023-01-25T03:15:22;0.10;99.90
21662;DHT22;10992;48.170;8.596;2023-01-25T03:17:49;0.20;99.90
21662;DHT22;10992;48.170;8.596;2023-01-25T03:20:17;0.10;99.90
21662;DHT22;10992;48.170;8.596;2023-01-25T03:22:44;0.10;99.90
21662;DHT22;10992;48.170;8.596;2023-01-25T03:25:12;0.00;99.90
21662;DHT22;10992;48.170;8.596;2023-01-25T03:27:48;0.00;99.90
21662;DHT22;10992;48.170;8.596;2023-01-25T03:30:15;0.10;99.90
21662;DHT22;10992;48.170;8.596;2023-01-25T03:32:42;0.10;99.90
21662;DHT22;10992;48.170;8.596;2023-01-25T03:35:14;0.10;99.90
21662;DHT22;10992;48.170;8.596;2023-01-25T03:37:41;0.10;99.90
21662;DHT22;10992;48.170;8.596;2023-01-25T03:40:09;0.10;99.90
21662;DHT22;10992;48.170;8.596;2023-01-25T03:42:40;0.10;99.90
21662;DHT22;10992;48.170;8.596;2023-01-25T03:45:07;0.10;99.90
21662;DHT22;10992;48.170;8.596;2023-01-25T03:47:35;0.10;99.90
21662;DHT22;10992;48.170;8.596;2023-01-25T03:50:03;0.10;99.90
21662;DHT22;10992;48.170;8.596;2023-01-25T03:52:31;0.10;99.90
21662;DHT22;10992;48.170;8.596;2023-01-25T03:55:06;0.10;99.90
21662;DHT22;10992;48.170;8.596;2023-01-25T03:57:38;0.20;99.90
21662;DHT22;10992;48.170;8.596;2023-01-25T04:00:06;0.10;99.90
21662;DHT22;10992;48.170;8.596;2023-01-25T04:02:41;0.10;99.90
21662;DHT22;10992;48.170;8.596;2023-01-25T04:05:11;0.10;99.90
21662;DHT22;10992;48.170;8.596;2023-01-25T04:07:38;0.20;99.90
21662;DHT22;10992;48.170;8.596;2023-01-25T04:10:08;0.20;99.90
21662;DHT22;10992;48.170;8.596;2023-01-25T04:12:39;0.20;99.90
21662;DHT22;10992;48.170;8.596;2023-01-25T04:15:06;0.20;99.90
21662;DHT22;10992;48.170;8.596;2023-01-25T04:17:34;0.10;99.90
21662;DHT22;10992;48.170;8.596;2023-01-25T04:20:12;0.20;99.90
21662;DHT22;10992;48.170;8.596;2023-01-25T04:22:39;0.20;99.90
21662;DHT22;10992;48.170;8.596;2023-01-25T04:25:08;0.20;99.90
21662;DHT22;10992;48.170;8.596;2023-01-25T04:27:40;0.20;99.90
21662;DHT22;10992;48.170;8.596;2023-01-25T04:30:11;0.20;99.90
21662;DHT22;10992;48.170;8.596;2023-01-25T04:32:39;0.20;99.90
21662;DHT22;10992;48.170;8.596;2023-01-25T04:35:17;0.10;99.90
21662;DHT22;10992;48.170;8.596;2023-01-25T04:37:57;0.20;99.90
21662;DHT22;10992;48.170;8.596;2023-01-25T04:40:29;0.20;99.90
21662;DHT22;10992;48.170;8.596;2023-01-25T04:42:55;0.20;99.90
21662;DHT22;10992;48.170;8.596;2023-01-25T04:45:23;0.20;99.90
21662;DHT22;10992;48.170;8.596;2023-01-25T04:48:02;0.20;99.90
21662;DHT22;10992;48.170;8.596;2023-01-25T04:50:31;0.20;99.90
21662;DHT22;10992;48.170;8.596;2023-01-25T04:52:58;0.20;99.90
21662;DHT22;10992;48.170;8.596;2023-01-25T04:55:27;0.20;99.90
21662;DHT22;10992;48.170;8.596;2023-01-25T04:57:57;0.20;99.90
21662;DHT22;10992;48.170;8.596;2023-01-25T05:00:25;0.20;99.90
21662;DHT22;10992;48.170;8.596;2023-01-25T05:02:52;0.20;99.90
21662;DHT22;10992;48.170;8.596;2023-01-25T05:05:19;0.20;99.90
21662;DHT22;10992;48.170;8.596;2023-01-25T05:07:47;0.20;99.90
21662;DHT22;10992;48.170;8.596;2023-01-25T05:10:14;0.20;99.90
21662;DHT22;10992;48.170;8.596;2023-01-25T05:12:59;0.20;99.90
21662;DHT22;10992;48.170;8.596;2023-01-25T05:15:26;0.20;99.90
21662;DHT22;10992;48.170;8.596;2023-01-25T05:17:53;0.10;99.90
21662;DHT22;10992;48.170;8.596;2023-01-25T05:20:20;0.10;99.90
21662;DHT22;10992;48.170;8.596;2023-01-25T05:22:46;0.10;99.90
21662;DHT22;10992;48.170;8.596;2023-01-25T05:25:14;0.10;99.90
21662;DHT22;10992;48.170;8.596;2023-01-25T05:28:06;0.10;99.90
21662;DHT22;10992;48.170;8.596;2023-01-25T05:30:52;0.10;99.90
21662;DHT22;10992;48.170;8.596;2023-01-25T05:33:23;0.10;99.90
21662;DHT22;10992;48.170;8.596;2023-01-25T05:35:50;0.10;99.90
21662;DHT22;10992;48.170;8.596;2023-01-25T05:38:17;0.00;99.90
21662;DHT22;10992;48.170;8.596;2023-01-25T05:40:44;0.10;99.90
21662;DHT22;10992;48.170;8.596;2023-01-25T05:43:11;0.10;99.90
21662;DHT22;10992;48.170;8.596;2023-01-25T05:45:39;0.10;99.90
21662;DHT22;10992;48.170;8.596;2023-01-25T05:48:06;0.10;99.90
21662;DHT22;10992;48.170;8.596;2023-01-25T05:50:34;0.10;99.90
21662;DHT22;10992;48.170;8.596;2023-01-25T05:53:08;0.10;99.90
21662;DHT22;10992;48.170;8.596;2023-01-25T05:55:35;0.00;99.90
21662;DHT22;10992;48.170;8.596;2023-01-25T05:58:08;0.00;99.90
21662;DHT22;10992;48.170;8.596;2023-01-25T06:00:37;0.10;99.90
21662;DHT22;10992;48.170;8.596;2023-01-25T06:03:04;0.10;99.90
21662;DHT22;10992;48.170;8.596;2023-01-25T06:05:36;0.10;99.90
21662;DHT22;10992;48.170;8.596;2023-01-25T06:08:03;0.10;99.90
21662;DHT22;10992;48.170;8.596;2023-01-25T06:10:39;0.10;99.90
21662;DHT22;10992;48.170;8.596;2023-01-25T06:13:06;0.10;99.90
21662;DHT22;10992;48.170;8.596;2023-01-25T06:15:34;0.10;99.90
21662;DHT22;10992;48.170;8.596;2023-01-25T06:18:19;0.10;99.90
21662;DHT22;10992;48.170;8.596;2023-01-25T06:21:07;0.10;99.90
21662;DHT22;10992;48.170;8.596;2023-01-25T06:23:35;0.10;99.90
21662;DHT22;10992;48.170;8.596;2023-01-25T06:26:05;0.10;99.90
21662;DHT22;10992;48.170;8.596;2023-01-25T06:28:34;0.10;99.90
21662;DHT22;10992;48.170;8.596;2023-01-25T06:31:05;0.10;99.90
21662;DHT22;10992;48.170;8.596;2023-01-25T06:33:33;0.10;99.90
21662;DHT22;10992;48.170;8.596;2023-01-25T06:36:06;0.10;99.90
21662;DHT22;10992;48.170;8.596;2023-01-25T06:38:33;0.00;99.90
21662;DHT22;10992;48.170;8.596;2023-01-25T06:41:02;0.00;99.90
21662;DHT22;10992;48.170;8.596;2023-01-25T06:43:30;0.00;99.90
21662;DHT22;10992;48.170;8.596;2023-01-25T06:46:08;0.00;99.90
21662;DHT22;10992;48.170;8.596;2023-01-25T06:48:38;0.00;99.90
21662;DHT22;10992;48.170;8.596;2023-01-25T06:51:07;0.00;99.90
21662;DHT22;10992;48.170;8.596;2023-01-25T06:53:38;0.00;99.90
21662;DHT22;10992;48.170;8.596;2023-01-25T06:56:11;0.00;99.90
21662;DHT22;10992;48.170;8.596;2023-01-25T06:58:39;0.00;99.90
21662;DHT22;10992;48.170;8.596;2023-01-25T07:01:14;0.00;99.90
21662;DHT22;10992;48.170;8.596;2023-01-25T07:03:42;0.00;99.90
21662;DHT22;10992;48.170;8.596;2023-01-25T07:06:09;0.10;99.90
21662;DHT22;10992;48.170;8.596;2023-01-25T07:08:37;0.10;99.90
21662;DHT22;10992;48.170;8.596;2023-01-25T07:11:07;0.10;99.90
21662;DHT22;10992;48.170;8.596;2023-01-25T07:13:42;0.20;99.90
21662;DHT22;10992;48.170;8.596;2023-01-25T07:16:16;0.10;99.90
21662;DHT22;10992;48.170;8.596;2023-01-25T07:18:44;0.10;99.90
21662;DHT22;10992;48.170;8.596;2023-01-25T07:21:16;0.10;99.90
21662;DHT22;10992;48.170;8.596;2023-01-25T07:23:43;0.10;99.90
21662;DHT22;10992;48.170;8.596;2023-01-25T07:26:17;0.10;99.90
21662;DHT22;10992;48.170;8.596;2023-01-25T07:28:45;0.10;99.90
21662;DHT22;10992;48.170;8.596;2023-01-25T07:31:13;0.10;99.90
21662;DHT22;10992;48.170;8.596;2023-01-25T07:33:41;0.10;99.90
21662;DHT22;10992;48.170;8.596;2023-01-25T07:36:09;0.10;99.90
21662;DHT22;10992;48.170;8.596;2023-01-25T07:38:37;0.10;99.90
21662;DHT22;10992;48.170;8.596;2023-01-25T07:41:04;0.10;99.90
21662;DHT22;10992;48.170;8.596;2023-01-25T07:43:31;0.10;99.90
21662;DHT22;10992;48.170;8.596;2023-01-25T07:46:06;0.10;99.90
21662;DHT22;10992;48.170;8.596;2023-01-25T07:48:33;0.00;99.90
21662;DHT22;10992;48.170;8.596;2023-01-25T07:51:02;0.00;99.90
21662;DHT22;10992;48.170;8.596;2023-01-25T07:53:44;0.00;99.90
21662;DHT22;10992;48.170;8.596;2023-01-25T07:56:12;0.10;99.90
21662;DHT22;10992;48.170;8.596;2023-01-25T07:58:39;0.10;99.90
21662;DHT22;10992;48.170;8.596;2023-01-25T08:01:16;0.10;99.90
21662;DHT22;10992;48.170;8.596;2023-01-25T08:03:43;0.20;99.90
21662;DHT22;10992;48.170;8.596;2023-01-25T08:06:12;0.20;99.90
21662;DHT22;10992;48.170;8.596;2023-01-25T08:08:42;0.20;99.90
21662;DHT22;10992;48.170;8.596;2023-01-25T08:11:17;0.20;99.90
21662;DHT22;10992;48.170;8.596;2023-01-25T08:13:44;0.20;99.90
21662;DHT22;10992;48.170;8.596;2023-01-25T08:16:16;0.20;99.90
21662;DHT22;10992;48.170;8.596;2023-01-25T08:18:47;0.20;99.90
21662;DHT22;10992;48.170;8.596;2023-01-25T08:21:14;0.30;99.90
21662;DHT22;10992;48.170;8.596;2023-01-25T08:23:41;0.30;99.90
21662;DHT22;10992;48.170;8.596;2023-01-25T08:26:10;0.30;99.90
21662;DHT22;10992;48.170;8.596;2023-01-25T08:28:37;0.30;99.90
21662;DHT22;10992;48.170;8.596;2023-01-25T08:31:25;0.40;99.90
21662;DHT22;10992;48.170;8.596;2023-01-25T08:33:53;0.40;99.90
21662;DHT22;10992;48.170;8.596;2023-01-25T08:36:21;0.40;99.90
21662;DHT22;10992;48.170;8.596;2023-01-25T08:38:53;0.50;99.90
21662;DHT22;10992;48.170;8.596;2023-01-25T08:41:21;0.40;99.90
21662;DHT22;10992;48.170;8.596;2023-01-25T08:43:49;0.50;99.90
21662;DHT22;10992;48.170;8.596;2023-01-25T08:46:17;0.50;99.90
21662;DHT22;10992;48.170;8.596;2023-01-25T08:48:44;0.50;99.90
21662;DHT22;10992;48.170;8.596;2023-01-25T08:51:13;0.50;99.90
21662;DHT22;10992;48.170;8.596;2023-01-25T08:53:41;0.50;99.90
21662;DHT22;10992;48.170;8.596;2023-01-25T08:56:10;0.50;99.90
21662;DHT22;10992;48.170;8.596;2023-01-25T08:58:41;0.60;99.90
21662;DHT22;10992;48.170;8.596;2023-01-25T09:01:10;0.60;99.90
21662;DHT22;10992;48.170;8.596;2023-01-25T09:03:39;0.50;99.90
21662;DHT22;10992;48.170;8.596;2023-01-25T09:06:07;0.60;99.90
21662;DHT22;10992;48.170;8.596;2023-01-25T09:08:35;0.50;99.90
21662;DHT22;10992;48.170;8.596;2023-01-25T09:11:14;0.50;99.90
21662;DHT22;10992;48.170;8.596;2023-01-25T09:13:47;0.50;99.90
21662;DHT22;10992;48.170;8.596;2023-01-25T09:16:19;0.50;99.90
21662;DHT22;10992;48.170;8.596;2023-01-25T09:18:54;0.60;99.90
21662;DHT22;10992;48.170;8.596;2023-01-25T09:21:21;0.60;99.90
21662;DHT22;10992;48.170;8.596;2023-01-25T09:23:50;0.70;99.90
21662;DHT22;10992;48.170;8.596;2023-01-25T09:26:32;0.70;99.90
21662;DHT22;10992;48.170;8.596;2023-01-25T09:29:00;0.80;99.90
21662;DHT22;10992;48.170;8.596;2023-01-25T09:31:27;0.80;99.90
21662;DHT22;10992;48.170;8.596;2023-01-25T09:34:07;0.80;99.90
21662;DHT22;10992;48.170;8.596;2023-01-25T09:36:35;0.90;99.90
21662;DHT22;10992;48.170;8.596;2023-01-25T09:39:03;0.80;99.90
21662;DHT22;10992;48.170;8.596;2023-01-25T09:53:15;1.00;99.90
21662;DHT22;10992;48.170;8.596;2023-01-25T09:55:49;0.90;99.90
21662;DHT22;10992;48.170;8.596;2023-01-25T09:58:26;0.90;99.90
21662;DHT22;10992;48.170;8.596;2023-01-25T10:01:02;0.80;99.90
21662;DHT22;10992;48.170;8.596;2023-01-25T10:06:49;0.80;99.90
21662;DHT22;10992;48.170;8.596;2023-01-25T10:09:47;0.90;99.90
21662;DHT22;10992;48.170;8.596;2023-01-25T10:12:21;0.90;99.90
21662;DHT22;10992;48.170;8.596;2023-01-25T10:14:53;0.90;99.90
21662;DHT22;10992;48.170;8.596;2023-01-25T10:17:28;0.80;99.90
21662;DHT22;10992;48.170;8.596;2023-01-25T10:22:42;0.80;99.90
21662;DHT22;10992;48.170;8.596;2023-01-25T10:25:34;0.80;99.90
21662;DHT22;10992;48.170;8.596;2023-01-25T10:31:03;0.70;99.90
21662;DHT22;10992;48.170;8.596;2023-01-25T10:33:34;0.80;99.90
21662;DHT22;10992;48.170;8.596;2023-01-25T10:36:05;0.80;99.90
21662;DHT22;10992;48.170;8.596;2023-01-25T10:38:37;0.80;99.90
21662;DHT22;10992;48.170;8.596;2023-01-25T10:41:25;0.70;99.90
21662;DHT22;10992;48.170;8.596;2023-01-25T10:43:54;0.60;99.90
21662;DHT22;10992;48.170;8.596;2023-01-25T10:46:40;0.60;99.90
21662;DHT22;10992;48.170;8.596;2023-01-25T10:49:28;0.50;99.90
21662;DHT22;10992;48.170;8.596;2023-01-25T10:52:18;0.50;99.90
21662;DHT22;10992;48.170;8.596;2023-01-25T10:54:47;0.50;99.90
21662;DHT22;10992;48.170;8.596;2023-01-25T10:57:19;0.50;99.90
21662;DHT22;10992;48.170;8.596;2023-01-25T10:59:50;0.50;99.90
21662;DHT22;10992;48.170;8.596;2023-01-25T11:02:43;0.50;99.90
21662;DHT22;10992;48.170;8.596;2023-01-25T11:05:35;0.50;99.90
21662;DHT22;10992;48.170;8.596;2023-01-25T11:08:22;0.60;99.90
21662;DHT22;10992;48.170;8.596;2023-01-25T11:10:51;0.60;99.90
21662;DHT22;10992;48.170;8.596;2023-01-25T11:13:22;0.50;99.90
21662;DHT22;10992;48.170;8.596;2023-01-25T11:18:32;0.40;99.90
21662;DHT22;10992;48.170;8.596;2023-01-25T11:21:19;0.40;99.90
21662;DHT22;10992;48.170;8.596;2023-01-25T11:24:16;0.40;99.90
21662;DHT22;10992;48.170;8.596;2023-01-25T11:26:45;0.40;99.90
21662;DHT22;10992;48.170;8.596;2023-01-25T11:29:18;0.50;99.90
21662;DHT22;10992;48.170;8.596;2023-01-25T11:31:47;0.50;99.90
21662;DHT22;10992;48.170;8.596;2023-01-25T11:34:23;0.50;99.90
21662;DHT22;10992;48.170;8.596;2023-01-25T11:37:00;0.40;99.90
21662;DHT22;10992;48.170;8.596;2023-01-25T11:50:37;0.40;99.90
21662;DHT22;10992;48.170;8.596;2023-01-25T11:55:44;0.30;99.90
21662;DHT22;10992;48.170;8.596;2023-01-25T12:07:05;0.40;99.90
21662;DHT22;10992;48.170;8.596;2023-01-25T12:10:13;0.50;99.90
21662;DHT22;10992;48.170;8.596;2023-01-25T12:12:55;0.60;99.90
21662;DHT22;10992;48.170;8.596;2023-01-25T12:18:35;0.60;99.90
21662;DHT22;10992;48.170;8.596;2023-01-25T12:24:11;0.50;99.90
21662;DHT22;10992;48.170;8.596;2023-01-25T12:29:42;0.40;99.90
21662;DHT22;10992;48.170;8.596;2023-01-25T12:32:36;0.50;99.90
21662;DHT22;10992;48.170;8.596;2023-01-25T12:35:24;0.60;99.90
21662;DHT22;10992;48.170;8.596;2023-01-25T12:37:59;0.70;99.90
21662;DHT22;10992;48.170;8.596;2023-01-25T12:46:00;0.90;99.90
21662;DHT22;10992;48.170;8.596;2023-01-25T12:48:37;0.80;99.90
21662;DHT22;10992;48.170;8.596;2023-01-25T12:51:07;0.70;99.90
21662;DHT22;10992;48.170;8.596;2023-01-25T12:53:44;0.70;99.90
21662;DHT22;10992;48.170;8.596;2023-01-25T12:58:59;0.60;99.90
21662;DHT22;10992;48.170;8.596;2023-01-25T13:01:52;0.60;99.90
21662;DHT22;10992;48.170;8.596;2023-01-25T13:04:43;0.60;99.90
21662;DHT22;10992;48.170;8.596;2023-01-25T13:07:15;0.50;99.90
21662;DHT22;10992;48.170;8.596;2023-01-25T13:12:22;0.50;99.90
21662;DHT22;10992;48.170;8.596;2023-01-25T13:14:50;0.50;99.90
21662;DHT22;10992;48.170;8.596;2023-01-25T13:19:53;0.60;99.90
21662;DHT22;10992;48.170;8.596;2023-01-25T13:25:18;0.70;99.90
21662;DHT22;10992;48.170;8.596;2023-01-25T13:27:45;0.70;99.90
21662;DHT22;10992;48.170;8.596;2023-01-25T13:30:29;0.70;99.90
21662;DHT22;10992;48.170;8.596;2023-01-25T13:33:04;0.60;99.90
21662;DHT22;10992;48.170;8.596;2023-01-25T13:35:40;0.60;99.90
21662;DHT22;10992;48.170;8.596;2023-01-25T13:40:36;0.60;99.90
21662;DHT22;10992;48.170;8.596;2023-01-25T13:43:18;0.60;99.90
21662;DHT22;10992;48.170;8.596;2023-01-25T13:45:48;0.60;99.90
21662;DHT22;10992;48.170;8.596;2023-01-25T13:48:19;0.70;99.90
21662;DHT22;10992;48.170;8.596;2023-01-25T13:50:50;0.60;99.90
21662;DHT22;10992;48.170;8.596;2023-01-25T13:53:21;0.60;99.90
21662;DHT22;10992;48.170;8.596;2023-01-25T13:55:53;0.40;99.90
21662;DHT22;10992;48.170;8.596;2023-01-25T13:58:24;0.30;99.90
21662;DHT22;10992;48.170;8.596;2023-01-25T14:03:28;0.40;99.90
21662;DHT22;10992;48.170;8.596;2023-01-25T14:05:58;0.30;99.90
21662;DHT22;10992;48.170;8.596;2023-01-25T14:08:29;0.40;99.90
21662;DHT22;10992;48.170;8.596;2023-01-25T14:10:57;0.50;99.90
21662;DHT22;10992;48.170;8.596;2023-01-25T14:13:24;0.50;99.90
21662;DHT22;10992;48.170;8.596;2023-01-25T14:15:59;0.50;99.90
21662;DHT22;10992;48.170;8.596;2023-01-25T14:18:31;0.50;99.90
21662;DHT22;10992;48.170;8.596;2023-01-25T14:21:14;0.50;99.90
21662;DHT22;10992;48.170;8.596;2023-01-25T14:23:42;0.40;99.90
21662;DHT22;10992;48.170;8.596;2023-01-25T14:26:20;0.30;99.90
21662;DHT22;10992;48.170;8.596;2023-01-25T14:28:51;0.40;99.90
21662;DHT22;10992;48.170;8.596;2023-01-25T14:31:31;0.40;99.90
21662;DHT22;10992;48.170;8.596;2023-01-25T14:33:58;0.40;99.90
21662;DHT22;10992;48.170;8.596;2023-01-25T14:36:27;0.40;99.90
21662;DHT22;10992;48.170;8.596;2023-01-25T14:38:55;0.30;99.90
21662;DHT22;10992;48.170;8.596;2023-01-25T14:41:32;0.40;99.90
21662;DHT22;10992;48.170;8.596;2023-01-25T14:44:05;0.40;99.90
21662;DHT22;10992;48.170;8.596;2023-01-25T14:46:37;0.20;99.90
21662;DHT22;10992;48.170;8.596;2023-01-25T14:54:19;0.20;99.90
21662;DHT22;10992;48.170;8.596;2023-01-25T14:56:58;0.30;99.90
21662;DHT22;10992;48.170;8.596;2023-01-25T15:02:37;0.30;99.90
21662;DHT22;10992;48.170;8.596;2023-01-25T15:05:17;0.20;99.90
21662;DHT22;10992;48.170;8.596;2023-01-25T15:07:54;0.30;99.90
21662;DHT22;10992;48.170;8.596;2023-01-25T15:10:24;0.20;99.90
21662;DHT22;10992;48.170;8.596;2023-01-25T15:16:00;0.30;99.90
21662;DHT22;10992;48.170;8.596;2023-01-25T15:21:25;0.20;99.90
21662;DHT22;10992;48.170;8.596;2023-01-25T15:23:54;0.10;99.90
21662;DHT22;10992;48.170;8.596;2023-01-25T15:28:50;0.10;99.90
21662;DHT22;10992;48.170;8.596;2023-01-25T15:31:27;0.10;99.90
21662;DHT22;10992;48.170;8.596;2023-01-25T15:33:56;0.20;99.90
21662;DHT22;10992;48.170;8.596;2023-01-25T15:36:23;0.10;99.90
21662;DHT22;10992;48.170;8.596;2023-01-25T15:38:51;0.00;99.90
21662;DHT22;10992;48.170;8.596;2023-01-25T15:41:18;0.10;99.90
21662;DHT22;10992;48.170;8.596;2023-01-25T15:43:46;0.10;99.90
21662;DHT22;10992;48.170;8.596;2023-01-25T15:46:20;0.20;99.90
21662;DHT22;10992;48.170;8.596;2023-01-25T15:48:49;0.20;99.90
21662;DHT22;10992;48.170;8.596;2023-01-25T15:51:20;0.20;99.90
21662;DHT22;10992;48.170;8.596;2023-01-25T15:53:47;0.10;99.90
21662;DHT22;10992;48.170;8.596;2023-01-25T15:56:23;0.10;99.90
21662;DHT22;10992;48.170;8.596;2023-01-25T15:58:59;0.10;99.90
21662;DHT22;10992;48.170;8.596;2023-01-25T16:01:28;0.10;99.90
21662;DHT22;10992;48.170;8.596;2023-01-25T16:03:56;0.00;99.90
21662;DHT22;10992;48.170;8.596;2023-01-25T16:06:49;0.00;99.90
21662;DHT22;10992;48.170;8.596;2023-01-25T16:09:22;-0.10;99.90
21662;DHT22;10992;48.170;8.596;2023-01-25T16:11:52;-0.10;99.90
21662;DHT22;10992;48.170;8.596;2023-01-25T16:14:20;-0.20;99.90
21662;DHT22;10992;48.170;8.596;2023-01-25T16:16:50;-0.10;99.90
21662;DHT22;10992;48.170;8.596;2023-01-25T16:19:20;-0.10;99.90
21662;DHT22;10992;48.170;8.596;2023-01-25T16:21:48;-0.20;99.90
21662;DHT22;10992;48.170;8.596;2023-01-25T16:24:16;-0.20;99.90
21662;DHT22;10992;48.170;8.596;2023-01-25T16:26:54;-0.30;99.90
21662;DHT22;10992;48.170;8.596;2023-01-25T16:29:21;-0.30;99.90
21662;DHT22;10992;48.170;8.596;2023-01-25T16:31:50;-0.40;99.90
21662;DHT22;10992;48.170;8.596;2023-01-25T16:34:17;-0.40;99.90
21662;DHT22;10992;48.170;8.596;2023-01-25T16:36:45;-0.40;99.90
21662;DHT22;10992;48.170;8.596;2023-01-25T16:39:18;-0.30;99.90
21662;DHT22;10992;48.170;8.596;2023-01-25T16:41:46;-0.30;99.90
21662;DHT22;10992;48.170;8.596;2023-01-25T16:44:14;-0.30;99.90
21662;DHT22;10992;48.170;8.596;2023-01-25T16:46:42;-0.30;99.90
21662;DHT22;10992;48.170;8.596;2023-01-25T16:49:21;-0.30;99.90
21662;DHT22;10992;48.170;8.596;2023-01-25T16:51:48;-0.20;99.90
21662;DHT22;10992;48.170;8.596;2023-01-25T16:54:16;-0.30;99.90
21662;DHT22;10992;48.170;8.596;2023-01-25T16:56:46;-0.30;99.90
21662;DHT22;10992;48.170;8.596;2023-01-25T16:59:14;-0.30;99.90
21662;DHT22;10992;48.170;8.596;2023-01-25T17:01:41;-0.30;99.90
21662;DHT22;10992;48.170;8.596;2023-01-25T17:04:09;-0.20;99.90
21662;DHT22;10992;48.170;8.596;2023-01-25T17:06:39;-0.20;99.90
21662;DHT22;10992;48.170;8.596;2023-01-25T17:09:07;-0.20;99.90
21662;DHT22;10992;48.170;8.596;2023-01-25T17:11:48;-0.30;99.90
21662;DHT22;10992;48.170;8.596;2023-01-25T17:14:17;-0.40;99.90
21662;DHT22;10992;48.170;8.596;2023-01-25T17:16:44;-0.50;99.90
21662;DHT22;10992;48.170;8.596;2023-01-25T17:19:14;-0.40;99.90
21662;DHT22;10992;48.170;8.596;2023-01-25T17:21:43;-0.30;99.90
21662;DHT22;10992;48.170;8.596;2023-01-25T17:24:13;-0.30;99.90
21662;DHT22;10992;48.170;8.596;2023-01-25T17:26:40;-0.50;99.90
21662;DHT22;10992;48.170;8.596;2023-01-25T17:29:07;-0.50;99.90
21662;DHT22;10992;48.170;8.596;2023-01-25T17:31:36;-0.50;99.90
21662;DHT22;10992;48.170;8.596;2023-01-25T17:34:05;-0.50;99.90
21662;DHT22;10992;48.170;8.596;2023-01-25T17:36:32;-0.50;99.90
21662;DHT22;10992;48.170;8.596;2023-01-25T17:39:06;-0.50;99.90
21662;DHT22;10992;48.170;8.596;2023-01-25T17:41:33;-0.50;99.90
21662;DHT22;10992;48.170;8.596;2023-01-25T17:44:00;-0.50;99.90
21662;DHT22;10992;48.170;8.596;2023-01-25T17:46:31;-0.50;99.90